sensor_id;sensor_type;location;lat;lon;timestamp;P1;durP1;ratioP1;P2;durP2;ratioP2
23123;SDS011;11731;48.592;8.858;2023-11-21T00:01:32;6.33;;;3.00;;
23123;SDS011;11731;48.592;8.858;2023-11-21T00:03:59;4.90;;;3.27;;
23123;SDS011;11731;48.592;8.858;2023-11-21T00:06:26;6.67;;;2.70;;
23123;SDS011;11731;48.592;8.858;2023-11-21T00:09:09;8.33;;;3.37;;
23123;SDS011;11731;48.592;8.858;2023-11-21T00:11:39;6.00;;;2.40;;
23123;SDS011;11731;48.592;8.858;2023-11-21T00:14:06;6.20;;;2.33;;
23123;SDS011;11731;48.592;8.858;2023-11-21T00:16:56;6.07;;;2.53;;
23123;SDS011;11731;48.592;8.858;2023-11-21T00:19:23;6.10;;;2.10;;
23123;SDS011;11731;48.592;8.858;2023-11-21T00:21:49;7.07;;;2.60;;
23123;SDS011;11731;48.592;8.858;2023-11-21T00:24:16;6.23;;;2.03;;
23123;SDS011;11731;48.592;8.858;2023-11-21T00:26:45;7.00;;;2.20;;
23123;SDS011;11731;48.592;8.858;2023-11-21T00:29:13;7.63;;;2.00;;
23123;SDS011;11731;48.592;8.858;2023-11-21T00:34:34;4.80;;;1.87;;
23123;SDS011;11731;48.592;8.858;2023-11-21T00:37:15;3.23;;;2.10;;
23123;SDS011;11731;48.592;8.858;2023-11-21T00:39:41;5.50;;;1.80;;
23123;SDS011;11731;48.592;8.858;2023-11-21T00:45:20;3.83;;;1.87;;
23123;SDS011;11731;48.592;8.858;2023-11-21T00:47:47;6.80;;;1.93;;
23123;SDS011;11731;48.592;8.858;2023-11-21T00:50:17;2.50;;;1.70;;
23123;SDS011;11731;48.592;8.858;2023-11-21T00:52:44;4.10;;;2.00;;
23123;SDS011;11731;48.592;8.858;2023-11-21T00:55:11;4.53;;;1.80;;
23123;SDS011;11731;48.592;8.858;2023-11-21T00:57:38;5.30;;;2.30;;
23123;SDS011;11731;48.592;8.858;2023-11-21T01:00:05;2.30;;;1.67;;
23123;SDS011;11731;48.592;8.858;2023-11-21T01:02:37;2.33;;;1.87;;
23123;SDS011;11731;48.592;8.858;2023-11-21T01:05:04;4.47;;;2.07;;
23123;SDS011;11731;48.592;8.858;2023-11-21T01:07:33;6.07;;;2.37;;
23123;SDS011;11731;48.592;8.858;2023-11-21T01:10:01;8.93;;;2.70;;
23123;SDS011;11731;48.592;8.858;2023-11-21T01:12:30;5.70;;;2.77;;
23123;SDS011;11731;48.592;8.858;2023-11-21T01:14:57;4.90;;;2.63;;
23123;SDS011;11731;48.592;8.858;2023-11-21T01:17:25;5.13;;;3.47;;
23123;SDS011;11731;48.592;8.858;2023-11-21T01:22:49;5.33;;;2.80;;
23123;SDS011;11731;48.592;8.858;2023-11-21T01:25:16;4.00;;;2.30;;
23123;SDS011;11731;48.592;8.858;2023-11-21T01:27:43;4.20;;;2.13;;
23123;SDS011;11731;48.592;8.858;2023-11-21T01:30:10;3.07;;;2.10;;
23123;SDS011;11731;48.592;8.858;2023-11-21T01:32:37;5.87;;;2.70;;
23123;SDS011;11731;48.592;8.858;2023-11-21T01:35:05;3.43;;;1.70;;
23123;SDS011;11731;48.592;8.858;2023-11-21T01:37:32;4.83;;;1.97;;
23123;SDS011;11731;48.592;8.858;2023-11-21T01:40:01;4.67;;;1.90;;
23123;SDS011;11731;48.592;8.858;2023-11-21T01:42:48;6.50;;;1.90;;
23123;SDS011;11731;48.592;8.858;2023-11-21T01:45:15;4.23;;;1.90;;
23123;SDS011;11731;48.592;8.858;2023-11-21T01:47:42;4.10;;;2.13;;
23123;SDS011;11731;48.592;8.858;2023-11-21T01:50:13;3.80;;;2.00;;
23123;SDS011;11731;48.592;8.858;2023-11-21T01:52:42;2.57;;;1.60;;
23123;SDS011;11731;48.592;8.858;2023-11-21T01:55:16;7.03;;;1.90;;
23123;SDS011;11731;48.592;8.858;2023-11-21T01:57:44;4.80;;;1.70;;
23123;SDS011;11731;48.592;8.858;2023-11-21T02:00:12;1.70;;;1.60;;
23123;SDS011;11731;48.592;8.858;2023-11-21T02:02:42;2.07;;;1.60;;
23123;SDS011;11731;48.592;8.858;2023-11-21T02:05:09;4.90;;;2.00;;
23123;SDS011;11731;48.592;8.858;2023-11-21T02:07:40;2.53;;;1.70;;
23123;SDS011;11731;48.592;8.858;2023-11-21T02:10:12;2.53;;;1.70;;
23123;SDS011;11731;48.592;8.858;2023-11-21T02:12:42;3.97;;;1.40;;
23123;SDS011;11731;48.592;8.858;2023-11-21T02:15:10;3.33;;;1.63;;
23123;SDS011;11731;48.592;8.858;2023-11-21T02:17:45;4.27;;;1.60;;
23123;SDS011;11731;48.592;8.858;2023-11-21T02:20:12;4.37;;;1.60;;
23123;SDS011;11731;48.592;8.858;2023-11-21T02:22:41;2.83;;;1.20;;
23123;SDS011;11731;48.592;8.858;2023-11-21T02:25:20;3.83;;;1.80;;
23123;SDS011;11731;48.592;8.858;2023-11-21T02:27:48;1.07;;;0.97;;
23123;SDS011;11731;48.592;8.858;2023-11-21T02:30:15;3.83;;;1.50;;
23123;SDS011;11731;48.592;8.858;2023-11-21T02:32:42;3.67;;;1.70;;
23123;SDS011;11731;48.592;8.858;2023-11-21T02:35:09;2.63;;;1.40;;
23123;SDS011;11731;48.592;8.858;2023-11-21T02:37:37;2.80;;;1.40;;
23123;SDS011;11731;48.592;8.858;2023-11-21T02:40:06;5.93;;;1.60;;
23123;SDS011;11731;48.592;8.858;2023-11-21T02:42:40;2.67;;;1.53;;
23123;SDS011;11731;48.592;8.858;2023-11-21T02:45:17;3.07;;;1.93;;
23123;SDS011;11731;48.592;8.858;2023-11-21T02:47:45;4.80;;;1.67;;
23123;SDS011;11731;48.592;8.858;2023-11-21T02:50:14;2.30;;;1.40;;
23123;SDS011;11731;48.592;8.858;2023-11-21T02:52:41;1.77;;;1.17;;
23123;SDS011;11731;48.592;8.858;2023-11-21T02:55:09;4.90;;;1.20;;
23123;SDS011;11731;48.592;8.858;2023-11-21T02:57:37;2.67;;;1.23;;
23123;SDS011;11731;48.592;8.858;2023-11-21T03:00:08;2.47;;;1.20;;
23123;SDS011;11731;48.592;8.858;2023-11-21T03:02:48;1.60;;;1.10;;
23123;SDS011;11731;48.592;8.858;2023-11-21T03:05:32;4.20;;;1.30;;
23123;SDS011;11731;48.592;8.858;2023-11-21T03:08:00;4.03;;;1.80;;
23123;SDS011;11731;48.592;8.858;2023-11-21T03:10:27;3.23;;;1.43;;
23123;SDS011;11731;48.592;8.858;2023-11-21T03:12:55;5.30;;;1.53;;
23123;SDS011;11731;48.592;8.858;2023-11-21T03:15:23;4.40;;;1.30;;
23123;SDS011;11731;48.592;8.858;2023-11-21T03:17:50;2.13;;;1.17;;
23123;SDS011;11731;48.592;8.858;2023-11-21T03:20:17;2.53;;;1.17;;
23123;SDS011;11731;48.592;8.858;2023-11-21T03:22:44;3.03;;;1.37;;
23123;SDS011;11731;48.592;8.858;2023-11-21T03:25:11;2.17;;;1.40;;
23123;SDS011;11731;48.592;8.858;2023-11-21T03:27:38;4.43;;;1.50;;
23123;SDS011;11731;48.592;8.858;2023-11-21T03:30:08;2.13;;;1.50;;
23123;SDS011;11731;48.592;8.858;2023-11-21T03:32:36;2.37;;;1.80;;
23123;SDS011;11731;48.592;8.858;2023-11-21T03:38:03;2.70;;;1.60;;
23123;SDS011;11731;48.592;8.858;2023-11-21T03:40:30;2.17;;;1.50;;
23123;SDS011;11731;48.592;8.858;2023-11-21T03:42:57;1.67;;;1.27;;
23123;SDS011;11731;48.592;8.858;2023-11-21T03:45:25;2.13;;;1.10;;
23123;SDS011;11731;48.592;8.858;2023-11-21T03:48:59;1.57;;;1.37;;
23123;SDS011;11731;48.592;8.858;2023-11-21T03:51:07;1.20;;;0.90;;
23123;SDS011;11731;48.592;8.858;2023-11-21T03:53:34;0.90;;;0.90;;
23123;SDS011;11731;48.592;8.858;2023-11-21T03:56:01;2.43;;;1.07;;
23123;SDS011;11731;48.592;8.858;2023-11-21T03:58:28;4.33;;;0.77;;
23123;SDS011;11731;48.592;8.858;2023-11-21T04:00:57;1.20;;;0.70;;
23123;SDS011;11731;48.592;8.858;2023-11-21T04:03:24;1.60;;;0.90;;
23123;SDS011;11731;48.592;8.858;2023-11-21T04:05:50;0.77;;;0.67;;
23123;SDS011;11731;48.592;8.858;2023-11-21T04:08:17;1.03;;;0.80;;
23123;SDS011;11731;48.592;8.858;2023-11-21T04:10:44;1.80;;;0.80;;
23123;SDS011;11731;48.592;8.858;2023-11-21T04:13:11;3.03;;;1.07;;
23123;SDS011;11731;48.592;8.858;2023-11-21T04:15:38;1.47;;;0.80;;
23123;SDS011;11731;48.592;8.858;2023-11-21T04:18:07;0.77;;;0.63;;
23123;SDS011;11731;48.592;8.858;2023-11-21T04:20:39;1.87;;;0.80;;
23123;SDS011;11731;48.592;8.858;2023-11-21T04:23:19;1.00;;;0.90;;
23123;SDS011;11731;48.592;8.858;2023-11-21T04:25:46;2.13;;;1.27;;
23123;SDS011;11731;48.592;8.858;2023-11-21T04:28:15;4.37;;;1.20;;
23123;SDS011;11731;48.592;8.858;2023-11-21T04:31:02;2.23;;;1.40;;
23123;SDS011;11731;48.592;8.858;2023-11-21T04:33:30;1.03;;;0.93;;
23123;SDS011;11731;48.592;8.858;2023-11-21T04:35:57;1.40;;;1.27;;
23123;SDS011;11731;48.592;8.858;2023-11-21T04:38:24;1.73;;;1.33;;
23123;SDS011;11731;48.592;8.858;2023-11-21T04:40:51;1.73;;;1.10;;
23123;SDS011;11731;48.592;8.858;2023-11-21T04:43:17;1.80;;;1.10;;
23123;SDS011;11731;48.592;8.858;2023-11-21T04:45:54;2.17;;;1.60;;
23123;SDS011;11731;48.592;8.858;2023-11-21T04:48:21;1.57;;;1.47;;
23123;SDS011;11731;48.592;8.858;2023-11-21T04:50:49;2.00;;;1.20;;
23123;SDS011;11731;48.592;8.858;2023-11-21T04:53:16;1.77;;;1.10;;
23123;SDS011;11731;48.592;8.858;2023-11-21T04:55:58;1.40;;;0.90;;
23123;SDS011;11731;48.592;8.858;2023-11-21T04:58:50;1.30;;;0.93;;
23123;SDS011;11731;48.592;8.858;2023-11-21T05:01:19;2.07;;;0.80;;
23123;SDS011;11731;48.592;8.858;2023-11-21T05:03:46;0.83;;;0.80;;
23123;SDS011;11731;48.592;8.858;2023-11-21T05:06:15;1.33;;;1.00;;
23123;SDS011;11731;48.592;8.858;2023-11-21T05:08:42;2.47;;;1.00;;
23123;SDS011;11731;48.592;8.858;2023-11-21T05:11:09;1.70;;;0.73;;
23123;SDS011;11731;48.592;8.858;2023-11-21T05:13:36;1.60;;;0.80;;
23123;SDS011;11731;48.592;8.858;2023-11-21T05:16:04;1.17;;;0.73;;
23123;SDS011;11731;48.592;8.858;2023-11-21T05:18:31;0.80;;;0.70;;
23123;SDS011;11731;48.592;8.858;2023-11-21T05:20:59;0.60;;;0.60;;
23123;SDS011;11731;48.592;8.858;2023-11-21T05:23:27;2.03;;;0.73;;
23123;SDS011;11731;48.592;8.858;2023-11-21T05:25:54;1.33;;;0.90;;
23123;SDS011;11731;48.592;8.858;2023-11-21T05:28:22;0.93;;;0.67;;
23123;SDS011;11731;48.592;8.858;2023-11-21T05:30:53;1.13;;;0.80;;
23123;SDS011;11731;48.592;8.858;2023-11-21T05:33:20;2.03;;;0.90;;
23123;SDS011;11731;48.592;8.858;2023-11-21T05:35:47;0.67;;;0.53;;
23123;SDS011;11731;48.592;8.858;2023-11-21T05:38:16;4.17;;;0.83;;
23123;SDS011;11731;48.592;8.858;2023-11-21T05:41:00;0.93;;;0.70;;
23123;SDS011;11731;48.592;8.858;2023-11-21T05:43:28;0.67;;;0.60;;
23123;SDS011;11731;48.592;8.858;2023-11-21T05:45:55;1.73;;;0.70;;
23123;SDS011;11731;48.592;8.858;2023-11-21T05:48:25;1.77;;;0.93;;
23123;SDS011;11731;48.592;8.858;2023-11-21T05:50:53;0.87;;;0.70;;
23123;SDS011;11731;48.592;8.858;2023-11-21T05:53:20;1.63;;;1.00;;
23123;SDS011;11731;48.592;8.858;2023-11-21T05:55:47;1.27;;;1.17;;
23123;SDS011;11731;48.592;8.858;2023-11-21T05:58:18;1.60;;;1.20;;
23123;SDS011;11731;48.592;8.858;2023-11-21T06:00:45;2.87;;;1.30;;
23123;SDS011;11731;48.592;8.858;2023-11-21T06:03:12;1.57;;;1.40;;
23123;SDS011;11731;48.592;8.858;2023-11-21T06:05:39;2.80;;;1.70;;
23123;SDS011;11731;48.592;8.858;2023-11-21T06:08:21;1.97;;;1.50;;
23123;SDS011;11731;48.592;8.858;2023-11-21T06:10:48;3.30;;;1.50;;
23123;SDS011;11731;48.592;8.858;2023-11-21T06:15:22;2.37;;;1.70;;
23123;SDS011;11731;48.592;8.858;2023-11-21T06:16:48;3.07;;;1.63;;
23123;SDS011;11731;48.592;8.858;2023-11-21T06:19:16;3.33;;;1.87;;
23123;SDS011;11731;48.592;8.858;2023-11-21T06:21:45;3.20;;;2.00;;
23123;SDS011;11731;48.592;8.858;2023-11-21T06:24:17;3.40;;;1.70;;
23123;SDS011;11731;48.592;8.858;2023-11-21T06:26:48;1.43;;;1.10;;
23123;SDS011;11731;48.592;8.858;2023-11-21T06:29:30;2.07;;;1.80;;
23123;SDS011;11731;48.592;8.858;2023-11-21T06:31:59;2.07;;;1.87;;
23123;SDS011;11731;48.592;8.858;2023-11-21T06:34:32;2.37;;;2.07;;
23123;SDS011;11731;48.592;8.858;2023-11-21T06:36:59;3.00;;;2.00;;
23123;SDS011;11731;48.592;8.858;2023-11-21T06:39:32;2.80;;;1.83;;
23123;SDS011;11731;48.592;8.858;2023-11-21T06:42:38;4.30;;;3.00;;
23123;SDS011;11731;48.592;8.858;2023-11-21T06:45:06;3.37;;;2.20;;
23123;SDS011;11731;48.592;8.858;2023-11-21T06:50:25;2.50;;;2.30;;
23123;SDS011;11731;48.592;8.858;2023-11-21T06:52:52;2.50;;;1.73;;
23123;SDS011;11731;48.592;8.858;2023-11-21T06:55:19;2.63;;;1.77;;
23123;SDS011;11731;48.592;8.858;2023-11-21T06:57:46;4.17;;;2.10;;
23123;SDS011;11731;48.592;8.858;2023-11-21T07:00:13;1.87;;;1.50;;
23123;SDS011;11731;48.592;8.858;2023-11-21T07:03:56;2.43;;;1.63;;
23123;SDS011;11731;48.592;8.858;2023-11-21T07:06:08;3.13;;;1.87;;
23123;SDS011;11731;48.592;8.858;2023-11-21T07:08:35;2.67;;;1.60;;
23123;SDS011;11731;48.592;8.858;2023-11-21T07:11:02;1.77;;;1.50;;
23123;SDS011;11731;48.592;8.858;2023-11-21T07:13:31;1.67;;;1.57;;
23123;SDS011;11731;48.592;8.858;2023-11-21T07:15:59;2.27;;;1.60;;
23123;SDS011;11731;48.592;8.858;2023-11-21T07:18:26;2.13;;;1.83;;
23123;SDS011;11731;48.592;8.858;2023-11-21T07:20:53;3.00;;;1.80;;
23123;SDS011;11731;48.592;8.858;2023-11-21T07:23:28;2.83;;;1.60;;
23123;SDS011;11731;48.592;8.858;2023-11-21T07:26:01;3.33;;;2.20;;
23123;SDS011;11731;48.592;8.858;2023-11-21T07:28:31;4.30;;;2.00;;
23123;SDS011;11731;48.592;8.858;2023-11-21T07:31:10;3.77;;;2.17;;
23123;SDS011;11731;48.592;8.858;2023-11-21T07:33:37;3.60;;;1.53;;
23123;SDS011;11731;48.592;8.858;2023-11-21T07:36:04;1.50;;;1.30;;
23123;SDS011;11731;48.592;8.858;2023-11-21T07:38:33;1.50;;;1.27;;
23123;SDS011;11731;48.592;8.858;2023-11-21T07:41:00;3.97;;;1.60;;
23123;SDS011;11731;48.592;8.858;2023-11-21T07:43:27;2.67;;;1.70;;
23123;SDS011;11731;48.592;8.858;2023-11-21T07:45:59;4.60;;;2.10;;
23123;SDS011;11731;48.592;8.858;2023-11-21T07:48:27;4.37;;;2.33;;
23123;SDS011;11731;48.592;8.858;2023-11-21T07:50:54;5.33;;;2.67;;
23123;SDS011;11731;48.592;8.858;2023-11-21T07:53:21;4.67;;;2.43;;
23123;SDS011;11731;48.592;8.858;2023-11-21T07:55:50;6.00;;;2.30;;
23123;SDS011;11731;48.592;8.858;2023-11-21T07:58:17;4.87;;;2.53;;
23123;SDS011;11731;48.592;8.858;2023-11-21T08:00:44;3.07;;;2.00;;
23123;SDS011;11731;48.592;8.858;2023-11-21T08:03:10;2.73;;;1.80;;
23123;SDS011;11731;48.592;8.858;2023-11-21T08:05:38;5.83;;;2.07;;
23123;SDS011;11731;48.592;8.858;2023-11-21T08:08:04;3.37;;;1.60;;
23123;SDS011;11731;48.592;8.858;2023-11-21T08:10:32;2.90;;;1.40;;
23123;SDS011;11731;48.592;8.858;2023-11-21T08:13:02;1.97;;;1.40;;
23123;SDS011;11731;48.592;8.858;2023-11-21T08:15:28;2.20;;;1.40;;
23123;SDS011;11731;48.592;8.858;2023-11-21T08:17:56;2.50;;;1.13;;
23123;SDS011;11731;48.592;8.858;2023-11-21T08:20:23;2.03;;;1.30;;
23123;SDS011;11731;48.592;8.858;2023-11-21T08:22:50;2.70;;;1.40;;
23123;SDS011;11731;48.592;8.858;2023-11-21T08:25:20;1.10;;;1.00;;
23123;SDS011;11731;48.592;8.858;2023-11-21T08:27:55;1.97;;;1.30;;
23123;SDS011;11731;48.592;8.858;2023-11-21T08:30:24;1.60;;;1.30;;
23123;SDS011;11731;48.592;8.858;2023-11-21T08:33:31;2.50;;;1.10;;
23123;SDS011;11731;48.592;8.858;2023-11-21T08:35:54;1.50;;;1.10;;
23123;SDS011;11731;48.592;8.858;2023-11-21T08:38:20;4.50;;;1.50;;
23123;SDS011;11731;48.592;8.858;2023-11-21T08:40:47;1.10;;;1.00;;
23123;SDS011;11731;48.592;8.858;2023-11-21T08:43:14;3.43;;;1.30;;
23123;SDS011;11731;48.592;8.858;2023-11-21T08:45:46;2.17;;;1.40;;
23123;SDS011;11731;48.592;8.858;2023-11-21T08:48:13;1.77;;;1.67;;
23123;SDS011;11731;48.592;8.858;2023-11-21T08:50:40;1.60;;;1.50;;
23123;SDS011;11731;48.592;8.858;2023-11-21T08:53:07;1.40;;;1.30;;
23123;SDS011;11731;48.592;8.858;2023-11-21T08:55:36;2.17;;;1.50;;
23123;SDS011;11731;48.592;8.858;2023-11-21T08:58:03;1.80;;;1.43;;
23123;SDS011;11731;48.592;8.858;2023-11-21T09:00:31;2.63;;;1.63;;
23123;SDS011;11731;48.592;8.858;2023-11-21T09:03:00;2.20;;;1.40;;
23123;SDS011;11731;48.592;8.858;2023-11-21T09:05:28;1.60;;;1.43;;
23123;SDS011;11731;48.592;8.858;2023-11-21T09:07:57;4.37;;;1.40;;
23123;SDS011;11731;48.592;8.858;2023-11-21T09:10:24;2.00;;;1.50;;
23123;SDS011;11731;48.592;8.858;2023-11-21T09:12:51;3.53;;;1.60;;
23123;SDS011;11731;48.592;8.858;2023-11-21T09:15:18;2.13;;;1.20;;
23123;SDS011;11731;48.592;8.858;2023-11-21T09:17:45;1.30;;;1.20;;
23123;SDS011;11731;48.592;8.858;2023-11-21T09:20:13;2.00;;;1.13;;
23123;SDS011;11731;48.592;8.858;2023-11-21T09:22:41;5.20;;;1.80;;
23123;SDS011;11731;48.592;8.858;2023-11-21T09:25:09;2.03;;;1.33;;
23123;SDS011;11731;48.592;8.858;2023-11-21T09:27:37;1.67;;;1.27;;
23123;SDS011;11731;48.592;8.858;2023-11-21T09:30:04;2.20;;;1.20;;
23123;SDS011;11731;48.592;8.858;2023-11-21T09:32:34;5.53;;;1.83;;
23123;SDS011;11731;48.592;8.858;2023-11-21T09:35:02;4.30;;;1.53;;
23123;SDS011;11731;48.592;8.858;2023-11-21T09:37:31;1.83;;;1.50;;
23123;SDS011;11731;48.592;8.858;2023-11-21T09:39:58;1.97;;;1.50;;
23123;SDS011;11731;48.592;8.858;2023-11-21T09:42:25;1.40;;;1.23;;
23123;SDS011;11731;48.592;8.858;2023-11-21T09:44:58;1.40;;;1.30;;
23123;SDS011;11731;48.592;8.858;2023-11-21T09:47:32;1.47;;;1.33;;
23123;SDS011;11731;48.592;8.858;2023-11-21T09:50:02;1.20;;;1.10;;
23123;SDS011;11731;48.592;8.858;2023-11-21T09:52:30;1.37;;;1.20;;
23123;SDS011;11731;48.592;8.858;2023-11-21T09:54:59;1.70;;;1.57;;
23123;SDS011;11731;48.592;8.858;2023-11-21T09:57:36;1.77;;;1.50;;
23123;SDS011;11731;48.592;8.858;2023-11-21T10:00:20;2.47;;;1.70;;
23123;SDS011;11731;48.592;8.858;2023-11-21T10:02:49;3.00;;;1.80;;
23123;SDS011;11731;48.592;8.858;2023-11-21T10:05:18;3.53;;;2.07;;
23123;SDS011;11731;48.592;8.858;2023-11-21T10:07:48;2.63;;;2.00;;
23123;SDS011;11731;48.592;8.858;2023-11-21T10:10:26;3.60;;;2.30;;
23123;SDS011;11731;48.592;8.858;2023-11-21T10:13:11;2.10;;;1.80;;
23123;SDS011;11731;48.592;8.858;2023-11-21T10:16:20;4.83;;;1.83;;
23123;SDS011;11731;48.592;8.858;2023-11-21T10:22:12;4.93;;;2.30;;
23123;SDS011;11731;48.592;8.858;2023-11-21T10:31:14;5.00;;;2.23;;
23123;SDS011;11731;48.592;8.858;2023-11-21T10:40:39;1.63;;;1.13;;
23123;SDS011;11731;48.592;8.858;2023-11-21T10:43:24;1.23;;;0.87;;
23123;SDS011;11731;48.592;8.858;2023-11-21T10:45:56;1.10;;;1.00;;
23123;SDS011;11731;48.592;8.858;2023-11-21T10:48:30;1.53;;;0.90;;
23123;SDS011;11731;48.592;8.858;2023-11-21T10:51:25;2.93;;;0.90;;
23123;SDS011;11731;48.592;8.858;2023-11-21T10:53:59;0.40;;;0.40;;
23123;SDS011;11731;48.592;8.858;2023-11-21T10:56:26;2.17;;;0.83;;
23123;SDS011;11731;48.592;8.858;2023-11-21T11:01:50;0.83;;;0.60;;
23123;SDS011;11731;48.592;8.858;2023-11-21T11:04:19;0.60;;;0.60;;
23123;SDS011;11731;48.592;8.858;2023-11-21T11:06:48;0.70;;;0.70;;
23123;SDS011;11731;48.592;8.858;2023-11-21T11:12:50;0.70;;;0.70;;
23123;SDS011;11731;48.592;8.858;2023-11-21T11:15:17;2.30;;;0.80;;
23123;SDS011;11731;48.592;8.858;2023-11-21T11:21:34;0.70;;;0.70;;
23123;SDS011;11731;48.592;8.858;2023-11-21T11:27:40;1.43;;;1.00;;
23123;SDS011;11731;48.592;8.858;2023-11-21T11:30:16;0.97;;;0.90;;
23123;SDS011;11731;48.592;8.858;2023-11-21T11:32:54;1.20;;;1.10;;
23123;SDS011;11731;48.592;8.858;2023-11-21T11:35:33;1.20;;;1.10;;
23123;SDS011;11731;48.592;8.858;2023-11-21T11:38:09;1.00;;;1.00;;
23123;SDS011;11731;48.592;8.858;2023-11-21T11:43:52;1.20;;;1.03;;
23123;SDS011;11731;48.592;8.858;2023-11-21T11:46:19;1.10;;;1.00;;
23123;SDS011;11731;48.592;8.858;2023-11-21T11:49:18;1.93;;;1.00;;
23123;SDS011;11731;48.592;8.858;2023-11-21T11:54:51;1.87;;;0.90;;
23123;SDS011;11731;48.592;8.858;2023-11-21T11:57:19;1.23;;;1.13;;
23123;SDS011;11731;48.592;8.858;2023-11-21T12:02:47;0.80;;;0.80;;
23123;SDS011;11731;48.592;8.858;2023-11-21T12:08:32;1.13;;;1.03;;
23123;SDS011;11731;48.592;8.858;2023-11-21T12:11:05;1.03;;;0.90;;
23123;SDS011;11731;48.592;8.858;2023-11-21T12:13:36;0.90;;;0.90;;
23123;SDS011;11731;48.592;8.858;2023-11-21T12:16:12;2.53;;;1.20;;
23123;SDS011;11731;48.592;8.858;2023-11-21T12:18:39;2.23;;;1.50;;
23123;SDS011;11731;48.592;8.858;2023-11-21T12:21:17;1.83;;;1.37;;
23123;SDS011;11731;48.592;8.858;2023-11-21T12:23:44;3.87;;;1.30;;
23123;SDS011;11731;48.592;8.858;2023-11-21T12:29:23;1.70;;;1.37;;
23123;SDS011;11731;48.592;8.858;2023-11-21T12:31:50;1.80;;;1.53;;
23123;SDS011;11731;48.592;8.858;2023-11-21T12:34:17;2.00;;;1.33;;
23123;SDS011;11731;48.592;8.858;2023-11-21T12:36:44;2.00;;;1.60;;
23123;SDS011;11731;48.592;8.858;2023-11-21T12:39:12;3.67;;;1.73;;
23123;SDS011;11731;48.592;8.858;2023-11-21T12:41:39;1.53;;;1.40;;
23123;SDS011;11731;48.592;8.858;2023-11-21T12:44:09;1.50;;;1.40;;
23123;SDS011;11731;48.592;8.858;2023-11-21T12:46:42;1.93;;;1.33;;
23123;SDS011;11731;48.592;8.858;2023-11-21T12:49:11;1.57;;;1.47;;
23123;SDS011;11731;48.592;8.858;2023-11-21T12:51:42;1.77;;;1.67;;
23123;SDS011;11731;48.592;8.858;2023-11-21T12:54:10;2.40;;;1.60;;
23123;SDS011;11731;48.592;8.858;2023-11-21T12:56:38;3.40;;;1.90;;
23123;SDS011;11731;48.592;8.858;2023-11-21T12:59:05;2.20;;;1.83;;
23123;SDS011;11731;48.592;8.858;2023-11-21T13:01:32;3.37;;;1.97;;
23123;SDS011;11731;48.592;8.858;2023-11-21T13:04:07;1.83;;;1.37;;
23123;SDS011;11731;48.592;8.858;2023-11-21T13:06:35;2.70;;;2.00;;
23123;SDS011;11731;48.592;8.858;2023-11-21T13:09:06;3.43;;;2.00;;
23123;SDS011;11731;48.592;8.858;2023-11-21T13:11:35;2.43;;;2.23;;
23123;SDS011;11731;48.592;8.858;2023-11-21T13:14:05;2.33;;;1.90;;
23123;SDS011;11731;48.592;8.858;2023-11-21T13:16:34;2.03;;;1.83;;
23123;SDS011;11731;48.592;8.858;2023-11-21T13:19:12;1.60;;;1.50;;
23123;SDS011;11731;48.592;8.858;2023-11-21T13:22:00;1.60;;;1.50;;
23123;SDS011;11731;48.592;8.858;2023-11-21T13:24:29;1.50;;;1.40;;
23123;SDS011;11731;48.592;8.858;2023-11-21T13:26:57;1.60;;;1.50;;
23123;SDS011;11731;48.592;8.858;2023-11-21T13:29:24;1.60;;;1.47;;
23123;SDS011;11731;48.592;8.858;2023-11-21T13:31:51;2.23;;;1.77;;
23123;SDS011;11731;48.592;8.858;2023-11-21T13:34:19;2.03;;;1.83;;
23123;SDS011;11731;48.592;8.858;2023-11-21T13:36:47;2.43;;;2.23;;
23123;SDS011;11731;48.592;8.858;2023-11-21T13:39:19;3.03;;;2.50;;
23123;SDS011;11731;48.592;8.858;2023-11-21T13:41:46;3.67;;;2.30;;
23123;SDS011;11731;48.592;8.858;2023-11-21T13:44:55;2.63;;;2.10;;
23123;SDS011;11731;48.592;8.858;2023-11-21T13:47:51;3.70;;;2.60;;
23123;SDS011;11731;48.592;8.858;2023-11-21T13:50:23;2.97;;;2.50;;
23123;SDS011;11731;48.592;8.858;2023-11-21T13:53:01;2.90;;;2.53;;
23123;SDS011;11731;48.592;8.858;2023-11-21T13:58:40;3.83;;;2.70;;
23123;SDS011;11731;48.592;8.858;2023-11-21T14:04:42;3.43;;;2.43;;
23123;SDS011;11731;48.592;8.858;2023-11-21T14:07:22;4.00;;;2.50;;
23123;SDS011;11731;48.592;8.858;2023-11-21T14:09:59;3.00;;;2.50;;
23123;SDS011;11731;48.592;8.858;2023-11-21T14:12:40;3.20;;;2.40;;
23123;SDS011;11731;48.592;8.858;2023-11-21T14:18:59;1.80;;;1.53;;
23123;SDS011;11731;48.592;8.858;2023-11-21T14:21:39;1.90;;;1.60;;
23123;SDS011;11731;48.592;8.858;2023-11-21T14:24:09;1.27;;;1.17;;
23123;SDS011;11731;48.592;8.858;2023-11-21T14:26:38;1.27;;;1.17;;
23123;SDS011;11731;48.592;8.858;2023-11-21T14:29:14;1.50;;;1.20;;
23123;SDS011;11731;48.592;8.858;2023-11-21T14:31:45;4.07;;;1.10;;
23123;SDS011;11731;48.592;8.858;2023-11-21T14:34:18;2.07;;;0.77;;
23123;SDS011;11731;48.592;8.858;2023-11-21T14:36:45;2.17;;;1.10;;
23123;SDS011;11731;48.592;8.858;2023-11-21T14:39:13;1.10;;;1.00;;
23123;SDS011;11731;48.592;8.858;2023-11-21T14:41:48;2.60;;;0.80;;
23123;SDS011;11731;48.592;8.858;2023-11-21T14:44:17;1.00;;;0.90;;
23123;SDS011;11731;48.592;8.858;2023-11-21T14:46:53;0.90;;;0.90;;
23123;SDS011;11731;48.592;8.858;2023-11-21T14:52:18;1.10;;;0.97;;
23123;SDS011;11731;48.592;8.858;2023-11-21T14:58:34;1.97;;;1.17;;
23123;SDS011;11731;48.592;8.858;2023-11-21T15:01:01;1.77;;;1.40;;
23123;SDS011;11731;48.592;8.858;2023-11-21T15:03:29;1.47;;;1.10;;
23123;SDS011;11731;48.592;8.858;2023-11-21T15:06:09;2.20;;;1.80;;
23123;SDS011;11731;48.592;8.858;2023-11-21T15:09:07;1.60;;;1.30;;
23123;SDS011;11731;48.592;8.858;2023-11-21T15:11:51;2.33;;;1.73;;
23123;SDS011;11731;48.592;8.858;2023-11-21T15:14:25;3.37;;;1.67;;
23123;SDS011;11731;48.592;8.858;2023-11-21T15:16:56;2.07;;;1.53;;
23123;SDS011;11731;48.592;8.858;2023-11-21T15:19:57;1.47;;;1.37;;
23123;SDS011;11731;48.592;8.858;2023-11-21T15:22:42;1.90;;;1.33;;
23123;SDS011;11731;48.592;8.858;2023-11-21T15:25:11;1.90;;;1.70;;
23123;SDS011;11731;48.592;8.858;2023-11-21T15:27:41;1.63;;;1.53;;
23123;SDS011;11731;48.592;8.858;2023-11-21T15:33:06;0.97;;;0.90;;
23123;SDS011;11731;48.592;8.858;2023-11-21T15:35:34;1.30;;;1.20;;
23123;SDS011;11731;48.592;8.858;2023-11-21T15:38:12;0.87;;;0.87;;
23123;SDS011;11731;48.592;8.858;2023-11-21T15:40:39;2.67;;;0.97;;
23123;SDS011;11731;48.592;8.858;2023-11-21T15:43:08;0.80;;;0.80;;
23123;SDS011;11731;48.592;8.858;2023-11-21T15:46:01;1.30;;;1.00;;
23123;SDS011;11731;48.592;8.858;2023-11-21T15:48:33;1.33;;;1.20;;
23123;SDS011;11731;48.592;8.858;2023-11-21T15:51:09;1.20;;;1.10;;
23123;SDS011;11731;48.592;8.858;2023-11-21T15:53:37;2.87;;;1.20;;
23123;SDS011;11731;48.592;8.858;2023-11-21T15:56:04;1.87;;;1.20;;
23123;SDS011;11731;48.592;8.858;2023-11-21T15:58:35;3.00;;;1.10;;
23123;SDS011;11731;48.592;8.858;2023-11-21T16:01:05;2.50;;;1.33;;
23123;SDS011;11731;48.592;8.858;2023-11-21T16:03:35;2.03;;;1.10;;
23123;SDS011;11731;48.592;8.858;2023-11-21T16:06:02;3.33;;;1.40;;
23123;SDS011;11731;48.592;8.858;2023-11-21T16:08:34;1.97;;;1.30;;
23123;SDS011;11731;48.592;8.858;2023-11-21T16:11:22;1.90;;;1.70;;
23123;SDS011;11731;48.592;8.858;2023-11-21T16:13:59;2.30;;;1.77;;
23123;SDS011;11731;48.592;8.858;2023-11-21T16:16:26;2.40;;;1.90;;
23123;SDS011;11731;48.592;8.858;2023-11-21T16:21:39;2.30;;;1.90;;
23123;SDS011;11731;48.592;8.858;2023-11-21T16:24:06;3.13;;;2.40;;
23123;SDS011;11731;48.592;8.858;2023-11-21T16:26:51;2.30;;;2.00;;
23123;SDS011;11731;48.592;8.858;2023-11-21T16:29:18;2.20;;;2.00;;
23123;SDS011;11731;48.592;8.858;2023-11-21T16:31:45;2.50;;;2.13;;
23123;SDS011;11731;48.592;8.858;2023-11-21T16:34:19;6.73;;;2.77;;
23123;SDS011;11731;48.592;8.858;2023-11-21T16:36:52;3.43;;;2.50;;